Time;durP1;ratioP1;P1;durP2;ratioP2;P2;SDS_P1;SDS_P2;PMS_P1;PMS_P2;Temp;Humidity;BMP_temperature;BMP_pressure;BME280_temperature;BME280_humidity;BME280_pressure;Samples;Min_cycle;Max_cycle;Signal;HPM_P1;HPM_P2
2022/06/10 00:02:05;;;;;;;10.60;2.28;;;;;;;;;;4899831;29;20099;-81
2022/06/10 00:04:32;;;;;;;13.80;2.60;;;;;;;;;;4900656;29;20030;-81
2022/06/10 00:06:59;;;;;;;10.68;2.03;;;;;;;;;;4902352;29;20494;-81
2022/06/10 00:09:25;;;;;;;16.25;2.40;;;;;;;;;;4901864;29;20108;-81
2022/06/10 00:11:52;;;;;;;10.18;2.17;;;;;;;;;;4902087;29;20017;-80
2022/06/10 00:14:18;;;;;;;14.45;3.05;;;;;;;;;;4901322;29;20071;-81
2022/06/10 00:16:44;;;;;;;12.27;2.25;;;;;;;;;;4898664;29;20032;-81
2022/06/10 00:19:11;;;;;;;11.95;2.70;;;;;;;;;;4902699;29;20033;-81
2022/06/10 00:21:37;;;;;;;10.63;2.40;;;;;;;;;;4901862;29;20552;-80
2022/06/10 00:24:03;;;;;;;14.38;2.70;;;;;;;;;;4901588;29;20033;-81
2022/06/10 00:26:30;;;;;;;11.27;2.35;;;;;;;;;;4901986;29;20034;-80
2022/06/10 00:28:56;;;;;;;12.60;2.35;;;;;;;;;;4898203;29;20414;-81
2022/06/10 00:31:22;;;;;;;13.32;2.63;;;;;;;;;;4901576;29;20498;-81
2022/06/10 00:33:49;;;;;;;12.48;2.60;;;;;;;;;;4902519;29;20029;-80
2022/06/10 00:36:15;;;;;;;13.30;2.60;;;;;;;;;;4901608;29;20087;-80
2022/06/10 00:38:42;;;;;;;8.50;2.25;;;;;;;;;;4901160;29;20050;-80
2022/06/10 00:41:08;;;;;;;13.43;2.55;;;;;;;;;;4899698;29;20549;-81
2022/06/10 00:43:35;;;;;;;8.23;2.22;;;;;;;;;;4899369;29;20040;-80
2022/06/10 00:46:09;;;;;;;11.85;2.45;;;;;;;;;;4900077;29;20035;-80
2022/06/10 00:48:36;;;;;;;14.00;2.50;;;;;;;;;;4901553;29;20013;-81
2022/06/10 00:51:05;;;;;;;11.82;2.60;;;;;;;;;;4901335;29;20028;-81
2022/06/10 00:53:35;;;;;;;14.63;2.22;;;;;;;;;;4900957;29;20424;-80
2022/06/10 00:56:05;;;;;;;11.02;2.25;;;;;;;;;;4898436;29;20025;-80
2022/06/10 00:58:40;;;;;;;12.63;2.38;;;;;;;;;;4900082;29;20039;-81
2022/06/10 01:01:08;;;;;;;11.05;2.70;;;;;;;;;;4900428;29;20032;-80
2022/06/10 01:03:35;;;;;;;19.50;2.42;;;;;;;;;;4901018;29;20028;-80
2022/06/10 01:06:01;;;;;;;10.63;1.90;;;;;;;;;;4900939;29;20030;-81
2022/06/10 01:08:28;;;;;;;9.13;2.40;;;;;;;;;;4901548;29;20027;-80
2022/06/10 01:11:13;;;;;;;10.35;2.30;;;;;;;;;;4897296;29;20031;-80
2022/06/10 01:13:46;;;;;;;16.58;2.55;;;;;;;;;;4898056;29;20033;-81
2022/06/10 01:16:18;;;;;;;11.45;2.42;;;;;;;;;;4901420;29;20442;-80
2022/06/10 01:18:47;;;;;;;13.18;2.50;;;;;;;;;;4900488;29;20032;-81
2022/06/10 01:21:23;;;;;;;12.52;2.03;;;;;;;;;;4900893;29;20032;-81
2022/06/10 01:23:49;;;;;;;8.13;2.17;;;;;;;;;;4915504;29;20047;-81
2022/06/10 01:26:18;;;;;;;15.45;2.88;;;;;;;;;;4899737;29;20031;-81
2022/06/10 01:28:54;;;;;;;9.23;2.53;;;;;;;;;;4897227;29;20466;-81
2022/06/10 01:31:27;;;;;;;9.52;2.15;;;;;;;;;;4908773;29;20036;-80
2022/06/10 01:33:53;;;;;;;11.18;2.08;;;;;;;;;;4901045;29;20025;-80
2022/06/10 01:36:34;;;;;;;12.80;3.00;;;;;;;;;;4900613;29;20449;-80
2022/06/10 01:39:00;;;;;;;12.30;2.33;;;;;;;;;;4900483;29;20059;-81
2022/06/10 01:41:33;;;;;;;12.55;2.30;;;;;;;;;;4900502;29;20034;-81
2022/06/10 01:44:12;;;;;;;13.23;2.50;;;;;;;;;;4897455;29;20024;-81
2022/06/10 01:46:41;;;;;;;13.23;2.80;;;;;;;;;;4898211;29;20039;-81
2022/06/10 01:49:18;;;;;;;9.70;2.28;;;;;;;;;;4901070;29;20095;-80
2022/06/10 01:51:58;;;;;;;14.02;2.50;;;;;;;;;;4900136;29;20498;-81
2022/06/10 01:54:31;;;;;;;10.98;2.40;;;;;;;;;;4900443;29;20029;-80
2022/06/10 01:56:58;;;;;;;8.40;2.08;;;;;;;;;;4900537;29;20016;-81
2022/06/10 01:59:31;;;;;;;13.90;2.80;;;;;;;;;;4900433;29;20024;-80
2022/06/10 02:02:02;;;;;;;7.90;2.00;;;;;;;;;;4882806;29;20048;-81
2022/06/10 02:04:30;;;;;;;15.20;2.53;;;;;;;;;;4899325;29;20032;-80
2022/06/10 02:06:59;;;;;;;15.05;3.17;;;;;;;;;;4900111;29;20040;-80
2022/06/10 02:09:29;;;;;;;7.22;2.30;;;;;;;;;;4900485;29;20031;-80
2022/06/10 02:12:02;;;;;;;9.35;2.35;;;;;;;;;;4900549;29;20025;-80
2022/06/10 02:14:33;;;;;;;11.95;2.20;;;;;;;;;;4900314;29;20442;-80
2022/06/10 02:17:00;;;;;;;10.43;2.28;;;;;;;;;;4897095;29;20032;-80
2022/06/10 02:19:28;;;;;;;6.75;2.25;;;;;;;;;;4899335;29;20027;-80
2022/06/10 02:21:55;;;;;;;12.32;2.97;;;;;;;;;;4900789;29;20055;-80
2022/06/10 02:24:21;;;;;;;10.27;2.38;;;;;;;;;;4900169;29;20021;-81
2022/06/10 02:26:48;;;;;;;13.10;3.30;;;;;;;;;;4900186;29;20518;-80
2022/06/10 02:29:19;;;;;;;10.95;2.75;;;;;;;;;;4899079;29;20024;-80
2022/06/10 02:31:46;;;;;;;;;;;;;;;;;;4899499;29;20051;-80
2022/06/10 02:34:13;;;;;;;9.35;2.08;;;;;;;;;;4904200;29;19917;-80
2022/06/10 02:36:54;;;;;;;7.78;2.30;;;;;;;;;;4904130;29;20029;-81
2022/06/10 02:39:26;;;;;;;11.13;2.85;;;;;;;;;;4903654;29;20564;-80
2022/06/10 02:41:59;;;;;;;8.52;2.28;;;;;;;;;;4903831;29;20024;-81
2022/06/10 02:44:44;;;;;;;8.43;2.20;;;;;;;;;;4903633;29;20039;-81
2022/06/10 02:47:18;;;;;;;10.02;2.35;;;;;;;;;;4901916;29;20058;-80
2022/06/10 02:49:44;;;;;;;7.50;2.20;;;;;;;;;;4900211;29;20440;-81
2022/06/10 02:52:13;;;;;;;8.30;2.28;;;;;;;;;;4904114;29;20490;-80
2022/06/10 02:54:40;;;;;;;10.05;2.10;;;;;;;;;;4902566;29;20016;-81
2022/06/10 02:57:15;;;;;;;9.00;2.22;;;;;;;;;;4903534;29;20034;-80
2022/06/10 03:02:31;;;;;;;8.10;2.20;;;;;;;;;;4903022;29;20424;-80
2022/06/10 03:05:19;;;;;;;12.00;2.78;;;;;;;;;;4899839;29;20408;-80
2022/06/10 03:07:46;;;;;;;13.50;2.50;;;;;;;;;;4899964;29;20028;-80
2022/06/10 03:10:21;;;;;;;11.77;2.15;;;;;;;;;;4903830;29;20035;-80
2022/06/10 03:12:51;;;;;;;8.43;2.42;;;;;;;;;;4903397;29;20035;-81
2022/06/10 03:15:27;;;;;;;9.73;2.15;;;;;;;;;;4903196;29;20025;-80
2022/06/10 03:18:12;;;;;;;10.80;2.67;;;;;;;;;;4902958;29;20027;-80
2022/06/10 03:21:00;;;;;;;13.25;2.80;;;;;;;;;;4903148;29;20482;-81
2022/06/10 03:23:32;;;;;;;13.95;2.35;;;;;;;;;;4902959;29;20028;-80
2022/06/10 03:26:03;;;;;;;12.30;2.38;;;;;;;;;;4899811;29;20059;-80
2022/06/10 03:28:35;;;;;;;9.15;2.05;;;;;;;;;;4902080;29;20028;-81
2022/06/10 03:31:11;;;;;;;11.35;2.65;;;;;;;;;;4902800;29;20039;-80
2022/06/10 03:33:42;;;;;;;8.15;2.50;;;;;;;;;;4903082;29;20035;-81
2022/06/10 03:36:11;;;;;;;12.20;2.70;;;;;;;;;;4903009;29;20035;-81
2022/06/10 03:38:42;;;;;;;11.93;2.75;;;;;;;;;;4903052;29;20040;-80
2022/06/10 03:41:17;;;;;;;12.25;2.78;;;;;;;;;;4900168;29;20037;-80
2022/06/10 03:43:44;;;;;;;12.48;2.33;;;;;;;;;;4899236;29;20409;-80
2022/06/10 03:46:12;;;;;;;7.93;2.30;;;;;;;;;;4902756;29;20035;-80
2022/06/10 03:48:39;;;;;;;10.57;2.40;;;;;;;;;;4917050;29;20035;-80
2022/06/10 03:51:07;;;;;;;7.93;2.25;;;;;;;;;;4902490;29;20024;-80
2022/06/10 03:53:34;;;;;;;8.98;2.03;;;;;;;;;;4902418;29;20034;-80
2022/06/10 03:56:00;;;;;;;12.98;2.50;;;;;;;;;;4899364;29;20025;-81
2022/06/10 03:58:26;;;;;;;6.57;2.45;;;;;;;;;;4901989;29;20040;-80
2022/06/10 04:00:53;;;;;;;14.13;2.28;;;;;;;;;;4902349;29;20394;-80
2022/06/10 04:03:20;;;;;;;11.68;2.97;;;;;;;;;;4902359;29;20036;-80
2022/06/10 04:05:46;;;;;;;11.55;2.65;;;;;;;;;;4902271;29;20041;-80
2022/06/10 04:08:12;;;;;;;12.10;2.58;;;;;;;;;;4900622;29;20020;-80
2022/06/10 04:10:39;;;;;;;14.52;3.30;;;;;;;;;;4899633;29;20021;-81
2022/06/10 04:13:07;;;;;;;9.05;2.22;;;;;;;;;;4902644;29;20062;-80
2022/06/10 04:15:33;;;;;;;14.23;2.58;;;;;;;;;;4901611;29;20024;-80
2022/06/10 04:17:59;;;;;;;10.20;2.88;;;;;;;;;;4901991;29;20454;-80
2022/06/10 04:20:28;;;;;;;9.40;2.33;;;;;;;;;;4902076;29;20020;-80
2022/06/10 04:22:54;;;;;;;10.15;2.70;;;;;;;;;;4897780;29;20041;-80
2022/06/10 04:25:21;;;;;;;8.07;2.75;;;;;;;;;;4902575;29;20045;-80
2022/06/10 04:27:48;;;;;;;10.43;2.35;;;;;;;;;;4916496;29;20039;-80
2022/06/10 04:30:19;;;;;;;10.15;3.17;;;;;;;;;;4901698;29;20033;-80
2022/06/10 04:32:46;;;;;;;13.55;2.75;;;;;;;;;;4901869;29;20706;-80
2022/06/10 04:35:12;;;;;;;6.63;2.10;;;;;;;;;;4900121;29;20028;-80
2022/06/10 04:37:38;;;;;;;13.25;2.88;;;;;;;;;;4898330;29;20029;-81
2022/06/10 04:40:05;;;;;;;11.60;2.58;;;;;;;;;;4902030;29;20412;-80
2022/06/10 04:42:32;;;;;;;9.00;2.50;;;;;;;;;;4901563;29;20036;-80
2022/06/10 04:44:58;;;;;;;9.85;2.40;;;;;;;;;;4901320;29;20017;-80
2022/06/10 04:47:25;;;;;;;10.45;2.05;;;;;;;;;;4901778;29;20038;-81
2022/06/10 04:49:51;;;;;;;6.68;1.98;;;;;;;;;;4882754;29;20031;-80
2022/06/10 04:52:17;;;;;;;7.85;2.00;;;;;;;;;;4902017;29;20031;-80
2022/06/10 04:54:44;;;;;;;7.47;2.03;;;;;;;;;;4900628;29;20029;-81
2022/06/10 04:57:10;;;;;;;5.53;1.80;;;;;;;;;;4901351;29;20028;-81
2022/06/10 04:59:37;;;;;;;5.35;2.15;;;;;;;;;;4900960;29;20560;-80
2022/06/10 05:02:03;;;;;;;10.32;1.73;;;;;;;;;;4898269;29;20047;-81
2022/06/10 05:04:31;;;;;;;7.30;2.15;;;;;;;;;;4900096;29;20108;-80
2022/06/10 05:06:57;;;;;;;7.93;2.10;;;;;;;;;;4901196;29;20029;-80
2022/06/10 05:09:23;;;;;;;8.63;2.35;;;;;;;;;;4901152;29;20474;-80
2022/06/10 05:11:50;;;;;;;10.50;2.53;;;;;;;;;;4901311;29;20035;-81
2022/06/10 05:14:16;;;;;;;9.02;2.58;;;;;;;;;;4899382;29;20020;-81
2022/06/10 05:16:43;;;;;;;20.70;2.97;;;;;;;;;;4896977;29;20524;-81
2022/06/10 05:19:10;;;;;;;11.38;2.40;;;;;;;;;;4901711;29;20033;-80
2022/06/10 05:21:36;;;;;;;9.23;2.42;;;;;;;;;;4900990;29;20383;-80
2022/06/10 05:24:03;;;;;;;9.82;2.60;;;;;;;;;;4901431;29;20025;-80
2022/06/10 05:26:29;;;;;;;13.45;2.28;;;;;;;;;;4899212;29;20388;-81
2022/06/10 05:28:58;;;;;;;11.55;2.75;;;;;;;;;;4896664;29;20057;-81
2022/06/10 05:31:25;;;;;;;9.90;2.40;;;;;;;;;;4900280;29;20385;-81
2022/06/10 05:36:36;;;;;;;15.13;2.60;;;;;;;;;;4900647;29;20025;-80
2022/06/10 05:39:03;;;;;;;9.25;2.75;;;;;;;;;;4900384;29;20040;-80
2022/06/10 05:44:15;;;;;;;10.45;2.47;;;;;;;;;;4899415;29;20028;-80
2022/06/10 05:46:41;;;;;;;5.28;2.03;;;;;;;;;;4897908;29;20036;-80
2022/06/10 05:49:08;;;;;;;16.77;2.60;;;;;;;;;;4915788;29;20414;-81
2022/06/10 05:51:34;;;;;;;6.13;1.80;;;;;;;;;;4900440;29;20028;-81
2022/06/10 05:54:00;;;;;;;11.82;2.63;;;;;;;;;;4900790;29;20039;-80
2022/06/10 05:56:27;;;;;;;7.35;2.22;;;;;;;;;;4900556;29;20019;-81
2022/06/10 05:58:54;;;;;;;5.00;1.80;;;;;;;;;;4896459;29;20021;-80
2022/06/10 06:01:20;;;;;;;7.63;2.53;;;;;;;;;;4901521;29;20020;-81
2022/06/10 06:03:47;;;;;;;9.23;1.80;;;;;;;;;;4900470;29;20076;-80
2022/06/10 06:06:14;;;;;;;10.00;2.10;;;;;;;;;;4903620;29;20021;-80
2022/06/10 06:08:41;;;;;;;7.18;1.83;;;;;;;;;;4904434;29;20051;-80
2022/06/10 06:11:07;;;;;;;7.10;2.20;;;;;;;;;;4901902;29;20479;-80
2022/06/10 06:13:33;;;;;;;12.15;2.08;;;;;;;;;;4899428;29;20028;-86
2022/06/10 06:16:00;;;;;;;7.55;1.73;;;;;;;;;;4903286;29;20021;-82
2022/06/10 06:18:26;;;;;;;7.90;1.95;;;;;;;;;;4904923;29;20040;-75
2022/06/10 06:20:52;;;;;;;12.13;1.85;;;;;;;;;;4901990;29;20039;-83
2022/06/10 06:23:20;;;;;;;7.22;1.65;;;;;;;;;;4891051;29;20036;-83
2022/06/10 10:25:18;;;;;;;4.60;1.88;;;;;;;;;;5068302;28;20747;-75
2022/06/10 10:27:44;;;;;;;;;;;;;;;;;;5065966;28;20021;-73
2022/06/10 10:30:29;;;;;;;5.18;1.70;;;;;;;;;;5066586;28;19915;-77
2022/06/10 10:33:01;;;;;;;6.97;2.00;;;;;;;;;;5066492;28;20297;-81
2022/06/10 10:35:31;;;;;;;5.07;1.90;;;;;;;;;;5066719;28;20021;-81
2022/06/10 10:38:02;;;;;;;4.85;1.85;;;;;;;;;;5066828;28;20393;-81
2022/06/10 10:40:43;;;;;;;6.97;1.92;;;;;;;;;;5067012;28;20037;-82
2022/06/10 10:43:19;;;;;;;7.68;1.75;;;;;;;;;;5068525;28;20500;-81
2022/06/10 10:46:06;;;;;;;8.73;2.35;;;;;;;;;;5066373;28;20059;-82
2022/06/10 10:48:44;;;;;;;5.55;1.77;;;;;;;;;;5066490;28;20027;-81
2022/06/10 10:51:10;;;;;;;5.18;1.83;;;;;;;;;;5066353;28;20040;-80
2022/06/10 10:53:46;;;;;;;6.55;1.70;;;;;;;;;;5066009;28;20029;-81
2022/06/10 10:56:13;;;;;;;5.63;1.65;;;;;;;;;;5066240;28;20021;-81
2022/06/10 10:58:42;;;;;;;2.28;1.38;;;;;;;;;;5067196;28;20041;-82
2022/06/10 11:01:08;;;;;;;;;;;;;;;;;;5066920;28;20496;-81
2022/06/10 11:03:46;;;;;;;7.60;1.35;;;;;;;;;;5063255;28;19908;-82
2022/06/10 11:06:24;;;;;;;5.10;1.30;;;;;;;;;;5065960;28;20040;-80
2022/06/10 11:09:22;;;;;;;3.80;1.38;;;;;;;;;;5066219;28;20013;-81
2022/06/10 11:11:50;;;;;;;2.08;1.27;;;;;;;;;;5045133;28;20033;-82
2022/06/10 11:14:35;;;;;;;5.38;1.50;;;;;;;;;;5045174;28;20037;-81
2022/06/10 11:17:14;;;;;;;7.68;1.60;;;;;;;;;;5044978;28;20029;-81
2022/06/10 11:19:45;;;;;;;4.13;1.60;;;;;;;;;;5045443;28;20021;-81
2022/06/10 11:22:15;;;;;;;7.03;1.73;;;;;;;;;;5014803;28;20054;-81
2022/06/10 11:24:49;;;;;;;8.18;1.92;;;;;;;;;;5033259;28;20054;-81
2022/06/10 11:27:18;;;;;;;6.47;1.58;;;;;;;;;;5033733;28;20048;-81
2022/06/10 11:29:44;;;;;;;;;;;;;;;;;;5014238;28;20061;-81
2022/06/10 11:32:18;;;;;;;9.25;1.55;;;;;;;;;;5044818;28;19915;-82
2022/06/10 11:34:46;;;;;;;3.83;1.50;;;;;;;;;;5024870;28;20038;-81
2022/06/10 11:37:31;;;;;;;6.60;1.77;;;;;;;;;;5027486;28;20389;-81
2022/06/10 11:40:02;;;;;;;9.00;2.20;;;;;;;;;;5028946;28;20398;-81
2022/06/10 11:42:31;;;;;;;7.88;1.58;;;;;;;;;;5022975;28;20040;-81
2022/06/10 11:44:57;;;;;;;;;;;;;;;;;;5020938;28;20415;-81
2022/06/10 11:47:27;;;;;;;3.08;1.42;;;;;;;;;;5035949;28;20266;-82
2022/06/10 11:49:58;;;;;;;5.97;1.42;;;;;;;;;;5036785;28;20014;-82
2022/06/10 11:52:27;;;;;;;4.32;1.50;;;;;;;;;;5049937;28;20020;-80
2022/06/10 11:54:57;;;;;;;2.95;1.50;;;;;;;;;;5048765;28;20047;-81
2022/06/10 12:00:31;;;;;;;4.78;1.55;;;;;;;;;;5051397;28;20039;-80
2022/06/10 12:03:06;;;;;;;8.52;1.70;;;;;;;;;;5051452;28;20413;-80
2022/06/10 12:05:53;;;;;;;4.35;1.40;;;;;;;;;;5041453;28;20020;-80
2022/06/10 12:08:28;;;;;;;7.30;1.30;;;;;;;;;;5051725;28;20028;-80
2022/06/10 12:10:55;;;;;;;4.88;1.65;;;;;;;;;;5035594;28;20531;-81
2022/06/10 12:13:22;;;;;;;2.35;1.08;;;;;;;;;;5051302;28;20033;-81
2022/06/10 12:15:54;;;;;;;3.40;1.40;;;;;;;;;;5050410;28;20021;-80
2022/06/10 12:18:21;;;;;;;2.38;1.48;;;;;;;;;;5048755;28;20028;-80
2022/06/10 12:20:54;;;;;;;3.15;1.30;;;;;;;;;;5048683;28;20482;-80
2022/06/10 12:23:23;;;;;;;4.57;1.67;;;;;;;;;;5051181;28;20035;-79
2022/06/10 12:25:50;;;;;;;;;;;;;;;;;;5051902;28;20024;-80
2022/06/10 12:28:27;;;;;;;2.67;1.20;;;;;;;;;;5053136;28;19911;-80
2022/06/10 12:31:00;;;;;;;2.13;1.23;;;;;;;;;;5050479;28;20082;-79
2022/06/10 12:33:37;;;;;;;3.10;1.33;;;;;;;;;;5050957;28;20370;-79
2022/06/10 12:36:06;;;;;;;1.98;1.15;;;;;;;;;;5049789;28;20482;-79
2022/06/10 12:38:37;;;;;;;4.22;1.60;;;;;;;;;;5047057;28;20031;-80
2022/06/10 12:41:08;;;;;;;2.47;1.10;;;;;;;;;;5049523;28;20032;-80
2022/06/10 12:43:37;;;;;;;2.45;1.25;;;;;;;;;;5050323;28;20094;-80
2022/06/10 12:46:03;;;;;;;;;;;;;;;;;;5052020;28;20023;-79
2022/06/10 12:48:34;;;;;;;3.53;1.23;;;;;;;;;;5049103;28;19915;-80
2022/06/10 12:51:12;;;;;;;2.75;1.20;;;;;;;;;;5050228;28;20021;-77
2022/06/10 12:53:45;;;;;;;2.72;1.20;;;;;;;;;;5054075;28;20405;-80
2022/06/10 12:56:25;;;;;;;3.33;1.20;;;;;;;;;;5049749;28;20527;-79
2022/06/10 12:59:12;;;;;;;3.70;1.30;;;;;;;;;;5049858;28;20091;-80
2022/06/10 13:01:38;;;;;;;3.67;1.10;;;;;;;;;;5047500;28;20029;-80
2022/06/10 13:04:24;;;;;;;4.05;1.27;;;;;;;;;;5049347;28;20043;-79
2022/06/10 13:06:56;;;;;;;3.35;1.35;;;;;;;;;;5027157;28;20498;-79
2022/06/10 13:09:24;;;;;;;4.72;1.20;;;;;;;;;;5027919;28;20037;-80
2022/06/10 13:11:58;;;;;;;2.30;1.15;;;;;;;;;;5024853;28;20045;-79
2022/06/10 13:14:38;;;;;;;2.25;1.20;;;;;;;;;;5016923;28;20035;-80
2022/06/10 13:17:13;;;;;;;3.28;0.95;;;;;;;;;;5028368;28;20031;-79
2022/06/10 13:19:40;;;;;;;4.20;1.15;;;;;;;;;;5028259;28;20040;-80
2022/06/10 13:22:18;;;;;;;6.78;1.35;;;;;;;;;;5015368;28;20038;-80
2022/06/10 13:24:53;;;;;;;4.97;1.10;;;;;;;;;;5017589;28;20069;-81
2022/06/10 13:27:27;;;;;;;1.85;0.95;;;;;;;;;;5025344;28;20040;-80
2022/06/10 13:29:55;;;;;;;2.60;1.30;;;;;;;;;;5020704;28;20040;-80
2022/06/10 13:32:21;;;;;;;9.98;1.17;;;;;;;;;;5023478;28;20112;-79
2022/06/10 13:34:55;;;;;;;3.08;1.10;;;;;;;;;;5014484;28;20037;-79
2022/06/10 13:37:24;;;;;;;3.63;1.27;;;;;;;;;;5026532;28;20098;-80
2022/06/10 13:39:52;;;;;;;3.08;1.00;;;;;;;;;;5028109;28;20044;-79
2022/06/10 13:42:38;;;;;;;2.53;1.17;;;;;;;;;;5027298;28;20037;-79
2022/06/10 13:45:14;;;;;;;4.53;1.23;;;;;;;;;;5042731;28;20464;-80
2022/06/10 13:47:52;;;;;;;3.80;1.20;;;;;;;;;;5053739;28;20377;-80
2022/06/10 13:53:07;;;;;;;1.98;1.00;;;;;;;;;;5036484;28;20374;-79
2022/06/10 13:55:35;;;;;;;5.55;1.40;;;;;;;;;;5054262;28;20031;-80
2022/06/10 13:58:07;;;;;;;3.53;0.90;;;;;;;;;;5050838;28;20389;-79
2022/06/10 14:00:41;;;;;;;4.32;1.00;;;;;;;;;;5056767;28;20073;-79
2022/06/10 14:03:14;;;;;;;2.42;0.98;;;;;;;;;;5054493;28;20032;-79
2022/06/10 14:05:40;;;;;;;4.70;1.20;;;;;;;;;;5049371;28;20634;-79
2022/06/10 14:08:06;;;;;;;4.45;1.10;;;;;;;;;;5049684;28;20024;-79
2022/06/10 14:10:44;;;;;;;3.80;1.20;;;;;;;;;;5050194;28;20381;-79
2022/06/10 14:13:15;;;;;;;3.17;1.05;;;;;;;;;;5055043;28;20025;-79
2022/06/10 14:15:48;;;;;;;2.20;0.95;;;;;;;;;;5047962;28;20044;-79
2022/06/10 14:18:16;;;;;;;2.83;0.80;;;;;;;;;;5046453;28;20025;-79
2022/06/10 14:20:44;;;;;;;2.67;0.80;;;;;;;;;;5049882;28;20569;-79
2022/06/10 14:23:37;;;;;;;3.90;0.98;;;;;;;;;;5050181;28;20523;-80
2022/06/10 14:26:07;;;;;;;3.13;0.88;;;;;;;;;;5029450;28;20490;-79
2022/06/10 14:28:33;;;;;;;2.10;0.70;;;;;;;;;;5049962;28;20028;-80
2022/06/10 14:31:01;;;;;;;3.83;1.23;;;;;;;;;;5077173;28;20047;-80
2022/06/10 14:33:31;;;;;;;6.88;0.85;;;;;;;;;;5048778;28;20017;-79
2022/06/10 14:36:07;;;;;;;5.27;1.20;;;;;;;;;;5048815;28;20027;-80
2022/06/10 14:38:34;;;;;;;4.25;1.00;;;;;;;;;;5048906;28;20029;-81
2022/06/10 14:41:16;;;;;;;3.03;1.00;;;;;;;;;;5050113;28;20025;-79
2022/06/10 14:44:12;;;;;;;3.55;1.05;;;;;;;;;;5055807;28;20039;-80
2022/06/10 14:46:38;;;;;;;3.20;0.95;;;;;;;;;;5027551;28;20599;-79
2022/06/10 14:49:24;;;;;;;3.45;1.00;;;;;;;;;;5017522;28;20052;-79
2022/06/10 14:51:50;;;;;;;2.45;0.80;;;;;;;;;;5025973;28;20036;-80
2022/06/10 14:54:19;;;;;;;4.05;0.93;;;;;;;;;;5027079;28;20041;-80
2022/06/10 14:56:47;;;;;;;1.65;0.80;;;;;;;;;;5025331;28;20044;-79
2022/06/10 14:59:16;;;;;;;11.30;1.10;;;;;;;;;;5026672;28;20034;-80
2022/06/10 15:01:43;;;;;;;6.97;0.95;;;;;;;;;;5021969;28;20029;-80
2022/06/10 15:04:10;;;;;;;2.97;0.90;;;;;;;;;;5024334;28;20079;-80
2022/06/10 15:06:44;;;;;;;3.47;0.90;;;;;;;;;;5027958;28;20064;-80
2022/06/10 15:09:18;;;;;;;3.20;0.80;;;;;;;;;;5021424;28;20030;-80
2022/06/10 15:11:46;;;;;;;6.70;0.98;;;;;;;;;;5012558;28;20032;-80
2022/06/10 15:14:14;;;;;;;3.95;0.95;;;;;;;;;;5031839;28;20033;-80
2022/06/10 15:16:42;;;;;;;3.83;0.63;;;;;;;;;;5027294;28;20040;-79
2022/06/10 15:19:11;;;;;;;4.40;0.90;;;;;;;;;;5018344;28;20037;-79
2022/06/10 15:21:39;;;;;;;2.73;0.77;;;;;;;;;;5005977;28;20069;-79
2022/06/10 15:24:06;;;;;;;4.32;0.80;;;;;;;;;;5054664;28;20348;-80
2022/06/10 15:26:40;;;;;;;3.03;0.98;;;;;;;;;;5062485;28;20498;-79
2022/06/10 15:29:07;;;;;;;2.88;1.05;;;;;;;;;;5052121;28;20523;-79
2022/06/10 15:31:33;;;;;;;6.47;0.85;;;;;;;;;;5053260;28;20036;-80
2022/06/10 15:34:00;;;;;;;6.43;0.80;;;;;;;;;;5052097;28;20025;-80
2022/06/10 15:42:04;;;;;;;3.08;0.90;;;;;;;;;;5052260;28;20024;-79
2022/06/10 15:44:31;;;;;;;3.17;0.95;;;;;;;;;;5050799;28;20505;-80
2022/06/10 15:47:02;;;;;;;3.63;0.95;;;;;;;;;;5052434;28;20017;-80
2022/06/10 15:49:29;;;;;;;4.35;0.82;;;;;;;;;;5051631;28;20393;-80
2022/06/10 15:51:59;;;;;;;5.95;0.90;;;;;;;;;;5052568;28;20443;-80
2022/06/10 15:54:25;;;;;;;;;;;;;;;;;;5052650;28;20451;-80
2022/06/10 15:57:12;;;;;;;2.55;0.80;;;;;;;;;;5051997;28;19957;-80
2022/06/10 15:59:47;;;;;;;3.97;0.90;;;;;;;;;;5051859;28;20029;-79
2022/06/10 16:02:16;;;;;;;4.80;0.90;;;;;;;;;;5051914;28;20047;-79
2022/06/10 16:04:42;;;;;;;3.55;0.73;;;;;;;;;;5051680;28;20498;-80
2022/06/10 16:07:09;;;;;;;3.33;0.70;;;;;;;;;;5053512;28;20397;-80
2022/06/10 16:09:35;;;;;;;2.55;0.77;;;;;;;;;;5051618;28;20039;-79
2022/06/10 16:14:49;;;;;;;4.50;1.00;;;;;;;;;;5050240;28;20035;-80
2022/06/10 16:17:15;;;;;;;5.32;0.75;;;;;;;;;;5051816;28;20023;-81
2022/06/10 16:19:41;;;;;;;7.05;1.02;;;;;;;;;;5050165;28;20041;-80
2022/06/10 16:22:10;;;;;;;1.80;0.70;;;;;;;;;;5053386;28;20021;-80
2022/06/10 16:24:36;;;;;;;5.20;1.00;;;;;;;;;;5051372;28;20048;-81
2022/06/10 16:27:04;;;;;;;1.73;1.00;;;;;;;;;;5051741;28;20035;-80
2022/06/10 16:29:30;;;;;;;5.50;0.73;;;;;;;;;;5051443;28;20009;-81
2022/06/10 16:31:58;;;;;;;4.50;1.00;;;;;;;;;;5051886;28;20030;-80
2022/06/10 16:34:26;;;;;;;4.22;0.95;;;;;;;;;;5053507;28;20035;-81
2022/06/10 16:36:53;;;;;;;4.82;0.90;;;;;;;;;;5051964;28;20025;-80
2022/06/10 16:39:19;;;;;;;4.03;1.00;;;;;;;;;;5051218;28;20025;-80
2022/06/10 16:41:47;;;;;;;2.60;0.70;;;;;;;;;;5051182;28;20009;-80
2022/06/10 16:44:22;;;;;;;5.40;0.90;;;;;;;;;;5051147;28;20033;-80
2022/06/10 16:46:48;;;;;;;4.93;0.85;;;;;;;;;;5051520;28;20021;-80
2022/06/10 16:49:23;;;;;;;4.30;0.70;;;;;;;;;;5052928;28;20029;-80
2022/06/10 16:51:51;;;;;;;5.75;0.82;;;;;;;;;;5049454;28;20017;-80
2022/06/10 16:54:17;;;;;;;2.65;0.90;;;;;;;;;;5049559;28;20045;-80
2022/06/10 16:56:43;;;;;;;1.73;0.77;;;;;;;;;;5051241;28;20031;-79
2022/06/10 16:59:11;;;;;;;1.25;0.70;;;;;;;;;;5051117;28;20025;-80
2022/06/10 17:01:37;;;;;;;4.93;1.10;;;;;;;;;;5051594;28;20036;-81
2022/06/10 17:04:03;;;;;;;5.05;0.82;;;;;;;;;;5052311;28;20029;-82
2022/06/10 17:06:30;;;;;;;5.30;1.20;;;;;;;;;;5050869;28;20033;-82
2022/06/10 17:08:56;;;;;;;3.45;0.93;;;;;;;;;;5049630;28;20032;-82
2022/06/10 17:11:24;;;;;;;2.15;0.70;;;;;;;;;;5050752;28;20021;-80
2022/06/10 17:13:55;;;;;;;1.67;0.70;;;;;;;;;;5049661;28;20423;-80
2022/06/10 17:16:22;;;;;;;;;;;;;;;;;;5047402;28;20021;-80
2022/06/10 17:18:49;;;;;;;3.60;0.80;;;;;;;;;;5050498;28;19905;-80
2022/06/10 17:21:15;;;;;;;2.42;0.90;;;;;;;;;;5050804;28;20031;-80
2022/06/10 17:23:42;;;;;;;3.03;0.85;;;;;;;;;;5050380;28;20049;-80
2022/06/10 17:26:14;;;;;;;2.97;1.02;;;;;;;;;;5050521;28;20353;-82
2022/06/10 17:28:42;;;;;;;6.68;1.30;;;;;;;;;;5049882;28;20031;-82
2022/06/10 17:31:10;;;;;;;4.60;0.90;;;;;;;;;;5050793;28;20523;-80
2022/06/10 17:33:38;;;;;;;4.10;1.00;;;;;;;;;;5048093;28;20024;-82
2022/06/10 17:36:05;;;;;;;8.10;1.10;;;;;;;;;;5050590;28;20032;-80
2022/06/10 17:38:40;;;;;;;3.95;0.98;;;;;;;;;;5050330;28;20013;-82
2022/06/10 17:41:13;;;;;;;8.80;1.05;;;;;;;;;;5048266;28;20040;-82
2022/06/10 17:43:42;;;;;;;2.15;0.85;;;;;;;;;;5050090;28;20029;-83
2022/06/10 17:46:20;;;;;;;4.78;1.33;;;;;;;;;;5050685;28;20033;-82
2022/06/10 17:48:46;;;;;;;3.70;1.02;;;;;;;;;;5049674;28;20067;-81
2022/06/10 17:51:14;;;;;;;7.78;0.85;;;;;;;;;;5050077;28;20021;-82
2022/06/10 17:53:40;;;;;;;1.83;0.93;;;;;;;;;;5050264;28;20082;-82
2022/06/10 17:56:09;;;;;;;3.40;1.10;;;;;;;;;;5050080;28;20023;-82
2022/06/10 17:58:35;;;;;;;6.05;0.85;;;;;;;;;;5050805;28;20393;-82
2022/06/10 18:01:02;;;;;;;4.28;1.05;;;;;;;;;;5051342;28;20021;-81
2022/06/10 18:03:28;;;;;;;4.60;1.17;;;;;;;;;;5049774;28;20550;-82
2022/06/10 18:05:55;;;;;;;2.55;1.10;;;;;;;;;;5049890;28;20081;-82
2022/06/10 18:08:22;;;;;;;6.40;1.52;;;;;;;;;;5048345;28;20013;-82
2022/06/10 18:10:50;;;;;;;3.72;0.98;;;;;;;;;;5048223;28;20401;-82
2022/06/10 18:16:04;;;;;;;5.20;1.15;;;;;;;;;;5051050;28;20028;-82
2022/06/10 18:18:36;;;;;;;3.95;1.20;;;;;;;;;;5049691;28;20401;-82
2022/06/10 18:21:03;;;;;;;7.10;1.38;;;;;;;;;;5049573;28;20024;-82
2022/06/10 18:23:32;;;;;;;3.25;1.05;;;;;;;;;;5049383;28;20043;-82
2022/06/10 18:26:00;;;;;;;4.95;1.10;;;;;;;;;;5048490;28;20045;-82
2022/06/10 18:28:27;;;;;;;7.70;1.17;;;;;;;;;;5050325;28;20055;-82
2022/06/10 18:30:55;;;;;;;4.53;1.00;;;;;;;;;;5048402;28;20482;-82
2022/06/10 18:33:22;;;;;;;11.38;1.45;;;;;;;;;;5049535;28;20017;-82
2022/06/10 18:35:49;;;;;;;5.45;1.05;;;;;;;;;;5049656;28;20035;-82
2022/06/10 18:38:18;;;;;;;5.53;1.52;;;;;;;;;;5049823;28;20021;-82
2022/06/10 18:40:45;;;;;;;6.72;1.35;;;;;;;;;;5049386;28;20035;-82
2022/06/10 18:43:30;;;;;;;7.70;1.40;;;;;;;;;;5051882;28;20029;-82
2022/06/10 18:46:00;;;;;;;5.43;1.48;;;;;;;;;;5051228;28;20041;-82
2022/06/10 18:48:31;;;;;;;5.82;1.80;;;;;;;;;;5052026;28;20014;-82
2022/06/10 18:50:59;;;;;;;6.95;1.60;;;;;;;;;;5051906;28;20025;-82
2022/06/10 18:53:26;;;;;;;5.90;1.65;;;;;;;;;;5053428;28;20009;-82
2022/06/10 18:55:53;;;;;;;4.57;1.83;;;;;;;;;;5053503;28;20731;-82
2022/06/10 18:58:19;;;;;;;4.50;1.50;;;;;;;;;;5055576;28;20025;-82
2022/06/10 19:00:47;;;;;;;7.15;2.00;;;;;;;;;;5053035;28;20025;-82
2022/06/10 19:03:19;;;;;;;5.78;2.10;;;;;;;;;;5053223;28;20048;-82
2022/06/10 19:05:45;;;;;;;6.38;1.50;;;;;;;;;;5052938;28;20025;-82
2022/06/10 19:08:13;;;;;;;7.22;2.00;;;;;;;;;;5053116;28;20400;-82
2022/06/10 19:10:39;;;;;;;3.55;1.42;;;;;;;;;;5053649;28;20028;-82
2022/06/10 19:13:06;;;;;;;6.03;1.13;;;;;;;;;;5055326;28;20029;-83
2022/06/10 19:15:34;;;;;;;4.25;1.20;;;;;;;;;;5052664;28;20387;-83
2022/06/10 19:18:00;;;;;;;4.85;1.27;;;;;;;;;;5052834;28;20054;-82
2022/06/10 19:20:28;;;;;;;5.43;1.17;;;;;;;;;;5052943;28;20020;-82
2022/06/10 19:22:56;;;;;;;5.03;1.35;;;;;;;;;;5036972;28;20456;-82
2022/06/10 19:25:24;;;;;;;5.45;1.65;;;;;;;;;;5055023;28;20402;-82